Time;durP1;ratioP1;P1;durP2;ratioP2;P2;SDS_P1;SDS_P2;PMS_P1;PMS_P2;Temp;Humidity;BMP_temperature;BMP_pressure;BME280_temperature;BME280_humidity;BME280_pressure;Samples;Min_cycle;Max_cycle;Signal;HPM_P1;HPM_P2
2023/08/04 00:02:59;;;;;;;2.43;2.33;;;16.10;79.90;;;;;;6238295;28;20246;-85
2023/08/04 00:06:09;;;;;;;2.70;2.60;;;16.10;79.80;;;;;;6215786;28;20231;-85
2023/08/04 00:09:12;;;;;;;2.90;2.80;;;16.10;79.90;;;;;;6231859;28;20235;-85
2023/08/04 00:12:16;;;;;;;2.63;2.53;;;16.10;80.00;;;;;;6222949;28;20275;-83
2023/08/04 00:15:19;;;;;;;2.50;2.50;;;16.10;80.00;;;;;;6228659;28;20322;-86
2023/08/04 00:18:24;;;;;;;2.57;2.47;;;16.20;79.90;;;;;;6227436;28;20258;-84
2023/08/04 00:21:27;;;;;;;3.53;2.50;;;16.20;79.80;;;;;;6234395;28;20265;-85
2023/08/04 00:24:30;;;;;;;3.10;3.00;;;16.20;79.90;;;;;;6237076;28;20276;-85
2023/08/04 00:27:34;;;;;;;2.50;2.50;;;16.20;79.90;;;;;;6225293;28;20270;-84
2023/08/04 00:30:37;;;;;;;3.27;3.07;;;16.20;80.10;;;;;;6248570;28;20235;-85
2023/08/04 00:33:41;;;;;;;3.07;2.97;;;16.20;80.30;;;;;;6222226;28;20246;-84
2023/08/04 00:36:45;;;;;;;3.10;3.00;;;16.20;80.50;;;;;;6222329;28;20258;-83
2023/08/04 00:39:48;;;;;;;3.37;3.17;;;16.30;80.50;;;;;;6217072;28;20271;-84
2023/08/04 00:42:51;;;;;;;3.60;3.40;;;16.40;80.70;;;;;;6214686;28;20240;-86
2023/08/04 00:45:55;;;;;;;3.30;3.20;;;16.40;80.50;;;;;;6220864;28;20246;-84
2023/08/04 00:49:00;;;;;;;3.37;3.20;;;16.50;80.50;;;;;;6229553;28;20654;-84
2023/08/04 00:52:04;;;;;;;3.87;3.40;;;16.50;80.50;;;;;;6218721;28;20922;-86
2023/08/04 00:55:09;;;;;;;3.83;3.43;;;16.60;80.30;;;;;;6222765;28;20576;-85
2023/08/04 00:58:13;;;;;;;3.83;3.43;;;16.60;80.30;;;;;;6229888;28;20236;-85
2023/08/04 01:01:17;;;;;;;3.50;3.40;;;16.60;80.20;;;;;;6221161;28;20231;-84
2023/08/04 01:04:22;;;;;;;3.60;3.40;;;16.70;80.20;;;;;;6235036;28;20227;-84
2023/08/04 01:07:35;;;;;;;3.63;3.57;;;16.70;80.20;;;;;;6231755;28;20266;-85
2023/08/04 01:10:44;;;;;;;3.53;3.43;;;16.70;80.00;;;;;;6219587;28;20227;-86
2023/08/04 01:13:48;;;;;;;4.50;3.60;;;16.80;80.00;;;;;;6226483;28;20243;-86
2023/08/04 01:16:51;;;;;;;4.10;3.80;;;16.70;80.00;;;;;;6221521;28;20608;-82
2023/08/04 01:19:56;;;;;;;4.00;3.63;;;16.70;80.00;;;;;;6228188;28;20728;-85
2023/08/04 01:23:01;;;;;;;4.20;3.90;;;16.70;79.90;;;;;;6225332;28;20240;-83
2023/08/04 01:26:06;;;;;;;4.17;3.83;;;16.80;79.80;;;;;;6220692;28;20242;-85
2023/08/04 01:29:11;;;;;;;3.87;3.70;;;16.80;79.80;;;;;;6219834;28;20315;-84
2023/08/04 01:32:15;;;;;;;5.70;4.30;;;16.80;79.90;;;;;;6228753;28;20329;-84
2023/08/04 01:35:18;;;;;;;4.10;3.80;;;16.80;79.80;;;;;;6228674;28;20749;-84
2023/08/04 01:38:23;;;;;;;4.43;4.00;;;16.80;80.00;;;;;;6223564;28;20317;-85
2023/08/04 01:41:26;;;;;;;4.07;3.93;;;16.80;80.00;;;;;;6220896;28;20746;-82
2023/08/04 01:44:29;;;;;;;3.97;3.67;;;16.90;80.00;;;;;;6216312;28;20227;-82
2023/08/04 01:47:33;;;;;;;4.03;3.73;;;16.80;80.10;;;;;;6225413;28;20360;-84
2023/08/04 01:50:36;;;;;;;4.93;4.20;;;16.80;80.00;;;;;;6215488;28;20236;-87
2023/08/04 01:53:41;;;;;;;4.63;4.00;;;16.90;80.20;;;;;;6233863;28;20253;-86
2023/08/04 01:56:44;;;;;;;5.70;4.17;;;16.80;80.10;;;;;;6230720;28;20328;-85
2023/08/04 01:59:47;;;;;;;5.97;4.00;;;16.90;80.10;;;;;;6218249;28;20246;-84
2023/08/04 02:02:50;;;;;;;4.23;3.83;;;16.80;80.20;;;;;;6219030;28;20243;-86
2023/08/04 02:05:54;;;;;;;5.47;4.97;;;16.80;80.20;;;;;;6222019;28;20745;-84
2023/08/04 02:08:59;;;;;;;4.40;4.03;;;16.80;80.30;;;;;;6234709;28;20257;-84
2023/08/04 02:12:02;;;;;;;6.77;4.87;;;16.80;80.40;;;;;;6221037;28;20243;-85
2023/08/04 02:15:07;;;;;;;5.17;4.63;;;16.80;80.30;;;;;;6220151;28;20235;-84
2023/08/04 02:18:10;;;;;;;14.73;4.53;;;16.80;80.30;;;;;;6218678;28;20255;-85
2023/08/04 02:21:14;;;;;;;4.60;4.37;;;16.80;80.40;;;;;;6221230;28;20235;-83
2023/08/04 02:24:19;;;;;;;4.40;4.10;;;16.80;80.50;;;;;;6225046;28;20682;-84
2023/08/04 02:27:22;;;;;;;5.27;4.87;;;16.80;80.70;;;;;;6220413;28;20247;-84
2023/08/04 02:30:25;;;;;;;4.97;4.57;;;16.70;81.10;;;;;;6221937;28;20243;-85
2023/08/04 02:33:28;;;;;;;5.97;4.73;;;16.70;81.10;;;;;;6232832;28;20243;-85
2023/08/04 02:36:31;;;;;;;5.77;4.87;;;16.70;81.20;;;;;;6240220;28;20239;-85
2023/08/04 02:39:36;;;;;;;5.13;4.70;;;16.70;81.10;;;;;;6232248;28;20249;-84
2023/08/04 02:42:39;;;;;;;6.73;4.87;;;16.70;81.10;;;;;;6225491;28;20239;-86
2023/08/04 02:45:48;;;;;;;5.23;4.73;;;16.70;80.90;;;;;;6223563;28;20239;-84
2023/08/04 02:48:51;;;;;;;5.10;4.67;;;16.70;80.90;;;;;;6231265;28;20762;-84
2023/08/04 02:51:55;;;;;;;6.57;4.97;;;16.70;80.80;;;;;;6215451;28;20285;-84
2023/08/04 02:54:59;;;;;;;5.33;4.83;;;16.80;80.40;;;;;;6237048;28;20242;-84
2023/08/04 02:58:03;;;;;;;6.17;5.13;;;16.80;80.30;;;;;;6240088;28;20242;-83
2023/08/04 03:01:07;;;;;;;5.50;5.03;;;16.80;80.20;;;;;;6232125;28;20255;-83
2023/08/04 03:04:12;;;;;;;4.73;4.40;;;16.90;80.00;;;;;;6233119;28;20284;-82
2023/08/04 03:07:15;;;;;;;7.50;4.97;;;16.90;79.80;;;;;;6232958;28;20227;-83
2023/08/04 03:10:20;;;;;;;7.07;5.30;;;16.90;79.60;;;;;;6230892;28;20265;-84
2023/08/04 03:13:23;;;;;;;6.03;5.33;;;16.80;79.50;;;;;;6217818;28;20473;-83
2023/08/04 03:16:27;;;;;;;8.77;5.13;;;16.90;79.30;;;;;;6237045;28;20321;-84
2023/08/04 03:19:30;;;;;;;5.73;4.80;;;16.90;79.20;;;;;;6219106;28;20254;-86
2023/08/04 03:22:33;;;;;;;5.17;4.63;;;16.90;78.90;;;;;;6235579;28;20285;-83
2023/08/04 03:25:38;;;;;;;5.33;4.80;;;16.90;78.90;;;;;;6213395;28;20227;-86
2023/08/04 03:28:41;;;;;;;5.27;4.93;;;16.90;79.00;;;;;;6226548;28;20321;-85
2023/08/04 03:31:44;;;;;;;5.50;5.00;;;16.80;79.10;;;;;;6215097;28;20235;-81
2023/08/04 03:34:47;;;;;;;4.87;4.53;;;16.90;78.90;;;;;;6229350;28;20245;-83
2023/08/04 03:37:51;;;;;;;5.93;4.97;;;16.90;78.70;;;;;;6224187;28;20242;-82
2023/08/04 03:40:55;;;;;;;6.37;5.67;;;16.80;78.60;;;;;;6235704;28;20327;-83
2023/08/04 03:43:58;;;;;;;5.60;5.10;;;16.80;78.70;;;;;;6234536;28;20231;-81
2023/08/04 03:47:01;;;;;;;5.50;5.00;;;16.70;78.80;;;;;;6230146;28;20243;-81
2023/08/04 03:50:08;;;;;;;5.83;4.83;;;16.70;78.90;;;;;;6230010;28;20246;-84
2023/08/04 03:53:11;;;;;;;5.47;5.17;;;16.60;79.00;;;;;;6214144;28;20239;-82
2023/08/04 03:56:16;;;;;;;6.57;5.73;;;16.60;79.00;;;;;;6222184;28;20321;-82
2023/08/04 03:59:19;;;;;;;6.17;5.53;;;16.60;78.90;;;;;;6223539;28;20328;-83
2023/08/04 04:02:22;;;;;;;6.80;5.50;;;16.60;79.00;;;;;;6225944;28;20298;-81
2023/08/04 04:05:25;;;;;;;5.80;5.40;;;16.60;78.70;;;;;;6227009;28;20240;-82
2023/08/04 04:08:28;;;;;;;6.43;5.67;;;16.60;78.70;;;;;;6212629;28;20259;-82
2023/08/04 04:11:33;;;;;;;10.07;6.07;;;16.50;78.80;;;;;;6217303;28;20243;-81
2023/08/04 04:14:36;;;;;;;8.77;5.83;;;16.50;78.70;;;;;;6220646;28;20257;-81
2023/08/04 04:17:39;;;;;;;7.60;6.07;;;16.40;78.90;;;;;;6229197;28;20266;-81
2023/08/04 04:20:42;;;;;;;9.93;5.73;;;16.50;78.70;;;;;;6209735;28;20243;-80
2023/08/04 04:23:46;;;;;;;7.47;5.87;;;16.40;78.90;;;;;;6217125;28;20741;-81
2023/08/04 04:26:50;;;;;;;12.27;5.83;;;16.40;79.00;;;;;;6220524;28;20300;-81
2023/08/04 04:29:53;;;;;;;6.47;5.83;;;16.40;79.00;;;;;;6229504;28;20245;-81
2023/08/04 04:32:56;;;;;;;8.97;6.43;;;16.40;79.00;;;;;;6209389;28;20865;-81
2023/08/04 04:36:00;;;;;;;9.17;5.87;;;16.30;79.10;;;;;;6227029;28;20732;-83
2023/08/04 04:39:04;;;;;;;6.30;5.70;;;16.40;79.10;;;;;;6234034;28;20317;-83
2023/08/04 04:42:08;;;;;;;12.67;7.07;;;16.40;79.00;;;;;;6227570;28;20235;-82
2023/08/04 04:45:12;;;;;;;6.73;6.20;;;16.40;78.90;;;;;;6221096;28;20311;-81
2023/08/04 04:48:15;;;;;;;11.90;5.97;;;16.30;79.10;;;;;;6220635;28;20843;-79
2023/08/04 04:51:30;;;;;;;8.33;6.17;;;16.30;79.00;;;;;;6224373;28;20227;-81
2023/08/04 04:54:33;;;;;;;8.57;5.90;;;16.30;79.20;;;;;;6224702;28;20282;-79
2023/08/04 04:57:40;;;;;;;8.30;6.13;;;16.40;78.90;;;;;;6226554;28;20249;-83
2023/08/04 05:00:43;;;;;;;7.50;5.73;;;16.40;78.80;;;;;;6233058;28;20255;-84
2023/08/04 05:03:46;;;;;;;6.10;5.50;;;16.50;78.50;;;;;;6221188;28;20231;-82
2023/08/04 05:06:49;;;;;;;7.50;5.90;;;16.60;78.30;;;;;;6224703;28;20238;-81
2023/08/04 05:09:52;;;;;;;12.13;5.50;;;16.70;77.90;;;;;;6229840;28;20246;-84
2023/08/04 05:12:57;;;;;;;6.07;5.47;;;16.80;77.40;;;;;;6220319;28;20231;-83
2023/08/04 05:16:00;;;;;;;6.23;5.07;;;16.90;77.50;;;;;;6219327;28;20560;-83
2023/08/04 05:19:03;;;;;;;9.20;5.30;;;17.00;76.80;;;;;;6228108;28;20239;-80
2023/08/04 05:22:07;;;;;;;9.20;5.30;;;17.00;75.70;;;;;;6229732;28;20519;-83
2023/08/04 05:25:10;;;;;;;7.93;5.43;;;16.80;76.10;;;;;;6224094;28;20231;-82
2023/08/04 05:28:23;;;;;;;11.57;6.07;;;16.80;76.30;;;;;;6232145;28;20238;-83
2023/08/04 05:31:27;;;;;;;8.23;4.83;;;16.90;75.80;;;;;;6226252;28;20325;-84
2023/08/04 05:34:30;;;;;;;6.20;5.00;;;16.90;75.80;;;;;;6223722;28;20239;-83
2023/08/04 05:37:33;;;;;;;7.23;4.87;;;16.90;75.80;;;;;;6218924;28;20316;-83
2023/08/04 05:40:36;;;;;;;5.73;4.80;;;16.90;75.80;;;;;;6227668;28;20249;-83
2023/08/04 05:43:43;;;;;;;5.40;4.90;;;16.90;75.90;;;;;;6220569;28;20246;-83
2023/08/04 05:46:46;;;;;;;5.00;4.70;;;17.00;75.50;;;;;;6219518;28;20250;-82
2023/08/04 05:49:49;;;;;;;6.40;4.80;;;17.00;75.50;;;;;;6227124;28;20329;-81
2023/08/04 05:52:52;;;;;;;11.23;5.30;;;17.00;75.40;;;;;;6221197;28;20312;-82
2023/08/04 05:55:55;;;;;;;5.73;4.60;;;17.00;74.90;;;;;;6231808;28;20289;-82
2023/08/04 05:59:00;;;;;;;6.97;5.13;;;17.10;75.20;;;;;;6233697;28;20243;-81
2023/08/04 06:02:03;;;;;;;8.17;4.23;;;17.40;74.60;;;;;;6233466;28;20289;-83
2023/08/04 06:05:07;;;;;;;5.67;5.10;;;17.50;74.00;;;;;;6218398;28;20231;-84
2023/08/04 06:08:11;;;;;;;6.37;4.37;;;17.50;73.60;;;;;;6232273;28;20251;-84
2023/08/04 06:11:14;;;;;;;7.43;4.80;;;17.80;73.40;;;;;;6227138;28;20850;-80
2023/08/04 06:14:19;;;;;;;6.53;4.53;;;17.70;72.90;;;;;;6227083;28;20258;-84
2023/08/04 06:17:22;;;;;;;5.47;4.80;;;17.70;73.20;;;;;;6238914;28;20234;-83
2023/08/04 06:20:25;;;;;;;5.53;5.10;;;17.80;73.20;;;;;;6232262;28;20235;-79
2023/08/04 06:23:29;;;;;;;6.00;4.67;;;18.00;72.60;;;;;;6231594;28;20632;-83
2023/08/04 06:26:33;;;;;;;5.20;4.70;;;18.10;72.60;;;;;;6231678;28;20227;-82
2023/08/04 06:29:37;;;;;;;5.30;4.67;;;18.30;71.50;;;;;;6225356;28;20238;-82
2023/08/04 06:32:40;;;;;;;6.27;4.33;;;18.30;71.20;;;;;;6224780;28;20260;-79
2023/08/04 06:35:44;;;;;;;5.33;4.40;;;18.40;71.10;;;;;;6238734;28;20235;-80
2023/08/04 06:38:47;;;;;;;4.47;4.10;;;18.40;70.40;;;;;;6234374;28;20252;-80
2023/08/04 06:41:51;;;;;;;5.13;4.67;;;18.30;70.30;;;;;;6229831;28;20308;-84
2023/08/04 06:44:55;;;;;;;6.07;4.53;;;18.40;70.60;;;;;;6229396;28;20735;-80
2023/08/04 06:47:59;;;;;;;4.97;4.37;;;18.40;71.20;;;;;;6216910;28;20297;-83
2023/08/04 06:51:02;;;;;;;8.93;4.37;;;18.30;71.20;;;;;;6231232;28;20285;-80
2023/08/04 06:54:05;;;;;;;4.77;4.33;;;18.20;71.30;;;;;;6222428;28;20245;-82
2023/08/04 06:57:09;;;;;;;4.83;4.17;;;18.50;71.00;;;;;;6234254;28;20242;-83
2023/08/04 07:00:13;;;;;;;4.93;4.53;;;18.50;70.40;;;;;;6220742;28;20259;-85
2023/08/04 07:03:17;;;;;;;4.33;4.03;;;18.40;70.00;;;;;;6221985;28;20235;-82
2023/08/04 07:06:20;;;;;;;4.60;4.17;;;18.50;69.80;;;;;;6220103;28;20237;-81
2023/08/04 07:09:23;;;;;;;6.07;4.17;;;18.40;69.60;;;;;;6223138;28;20238;-84
2023/08/04 07:12:26;;;;;;;4.27;3.97;;;18.50;70.10;;;;;;6229003;28;20243;-81
2023/08/04 07:15:33;;;;;;;8.37;4.70;;;18.40;70.40;;;;;;6231442;28;20312;-82
2023/08/04 07:18:36;;;;;;;5.40;4.57;;;18.50;70.50;;;;;;6225527;28;20236;-82
2023/08/04 07:21:40;;;;;;;5.70;5.13;;;18.40;70.40;;;;;;6220779;28;20239;-82
2023/08/04 07:24:43;;;;;;;5.20;4.27;;;18.40;70.50;;;;;;6230433;28;20365;-81
2023/08/04 07:27:46;;;;;;;4.90;4.47;;;18.40;70.80;;;;;;6231536;28;20238;-80
2023/08/04 07:30:51;;;;;;;5.67;4.27;;;18.60;69.60;;;;;;6222584;28;20270;-83
2023/08/04 07:33:55;;;;;;;6.80;4.43;;;18.70;69.60;;;;;;6223909;28;20614;-82
2023/08/04 07:36:58;;;;;;;4.47;4.07;;;18.80;69.20;;;;;;6226975;28;20240;-81
2023/08/04 07:40:01;;;;;;;11.13;4.50;;;18.80;69.30;;;;;;6224766;28;20290;-81
2023/08/04 07:43:05;;;;;;;6.53;4.50;;;18.70;69.20;;;;;;6233660;28;20242;-81
2023/08/04 07:46:13;;;;;;;4.67;4.23;;;18.60;69.30;;;;;;6222561;28;20271;-82
2023/08/04 07:49:16;;;;;;;5.00;4.10;;;18.60;69.40;;;;;;6210207;28;20243;-82
2023/08/04 07:52:19;;;;;;;5.80;4.57;;;18.60;69.60;;;;;;6232148;28;20241;-81
2023/08/04 07:55:23;;;;;;;6.53;4.00;;;18.60;69.90;;;;;;6219575;28;20262;-81
2023/08/04 07:58:26;;;;;;;5.60;4.03;;;18.70;68.70;;;;;;6227870;28;20818;-79
2023/08/04 08:01:31;;;;;;;4.30;3.90;;;18.80;68.10;;;;;;6219082;28;20670;-81
2023/08/04 08:04:35;;;;;;;4.77;4.13;;;18.80;67.80;;;;;;6224131;28;20318;-82
2023/08/04 08:07:40;;;;;;;4.83;3.87;;;19.00;67.80;;;;;;6218935;28;20239;-81
2023/08/04 08:10:48;;;;;;;4.50;4.10;;;19.10;67.30;;;;;;6227094;28;20848;-82
2023/08/04 08:13:51;;;;;;;6.07;4.27;;;19.20;67.30;;;;;;6218136;28;20235;-80
2023/08/04 08:16:56;;;;;;;6.03;4.27;;;19.30;66.70;;;;;;6233692;28;20239;-82
2023/08/04 08:20:01;;;;;;;4.60;4.17;;;19.30;66.90;;;;;;6226697;28;20464;-82
2023/08/04 08:23:04;;;;;;;6.03;4.27;;;19.10;67.20;;;;;;6221091;28;20322;-81
2023/08/04 08:26:07;;;;;;;4.27;3.90;;;19.00;67.20;;;;;;6225321;28;20245;-83
2023/08/04 08:29:11;;;;;;;4.00;3.80;;;19.10;67.50;;;;;;6231557;28;20242;-82
2023/08/04 08:32:16;;;;;;;6.13;3.70;;;19.00;67.80;;;;;;6228433;28;20256;-82
2023/08/04 08:35:19;;;;;;;4.40;3.60;;;19.20;67.20;;;;;;6221321;28;20231;-83
2023/08/04 08:38:22;;;;;;;4.70;4.00;;;19.30;66.70;;;;;;6228233;28;20247;-82
2023/08/04 08:41:25;;;;;;;4.50;4.17;;;19.30;66.60;;;;;;6226773;28;20303;-81
2023/08/04 08:44:29;;;;;;;6.30;4.20;;;19.50;66.00;;;;;;6206860;28;20238;-80
2023/08/04 08:47:36;;;;;;;10.93;4.67;;;19.70;65.60;;;;;;6209789;28;20270;-78
2023/08/04 08:50:40;;;;;;;4.60;4.20;;;19.70;65.30;;;;;;6229868;28;20238;-82
2023/08/04 08:53:44;;;;;;;4.77;4.33;;;19.90;65.40;;;;;;6233956;28;20309;-81
2023/08/04 08:56:48;;;;;;;6.23;4.00;;;19.80;65.50;;;;;;6226947;28;20322;-82
2023/08/04 08:59:51;;;;;;;7.13;5.20;;;19.90;65.40;;;;;;6229474;28;20242;-83
2023/08/04 09:02:56;;;;;;;4.63;4.10;;;20.00;65.30;;;;;;6206174;28;20250;-83
2023/08/04 09:05:59;;;;;;;8.07;4.20;;;20.00;65.40;;;;;;6218713;28;20869;-82
2023/08/04 09:09:05;;;;;;;4.00;3.70;;;19.90;65.40;;;;;;6225121;28;20257;-80
2023/08/04 09:12:09;;;;;;;4.07;3.77;;;19.70;65.60;;;;;;6228405;28;20234;-82
2023/08/04 09:15:13;;;;;;;4.40;4.10;;;19.70;65.60;;;;;;6224229;28;20288;-81
2023/08/04 09:18:29;;;;;;;4.80;4.40;;;20.00;65.40;;;;;;6222705;28;20230;-83
2023/08/04 09:21:32;;;;;;;4.67;4.37;;;20.10;62.50;;;;;;6217654;28;20260;-81
2023/08/04 09:24:35;;;;;;;4.13;3.57;;;20.30;63.20;;;;;;6225928;28;20784;-83
2023/08/04 09:27:42;;;;;;;6.03;4.33;;;20.50;62.80;;;;;;6223502;28;20288;-82
2023/08/04 09:31:04;;;;;;;4.50;4.10;;;20.90;61.90;;;;;;6227803;28;20250;-79
2023/08/04 09:34:10;;;;;;;3.80;3.50;;;21.10;62.00;;;;;;6225232;28;20844;-80
2023/08/04 09:37:16;;;;;;;4.37;3.50;;;21.10;62.00;;;;;;6232835;28;20231;-81
2023/08/04 09:40:21;;;;;;;3.50;3.20;;;21.20;61.40;;;;;;6245230;28;20246;-83
2023/08/04 09:43:24;;;;;;;3.93;3.50;;;21.30;61.20;;;;;;6234212;28;20226;-82
2023/08/04 09:46:31;;;;;;;4.97;3.97;;;21.40;61.20;;;;;;6231693;28;20242;-83
2023/08/04 09:49:36;;;;;;;5.17;4.43;;;21.30;60.60;;;;;;6235950;28;20312;-82
2023/08/04 09:52:39;;;;;;;5.93;3.40;;;21.10;60.80;;;;;;6222913;28;20739;-83
2023/08/04 09:55:44;;;;;;;4.13;3.77;;;20.60;61.50;;;;;;6225240;28;20312;-82
2023/08/04 09:58:48;;;;;;;4.77;3.93;;;20.50;62.30;;;;;;6226299;28;20235;-84
2023/08/04 10:01:52;;;;;;;4.70;3.57;;;20.70;61.90;;;;;;6229959;28;20262;-81
2023/08/04 10:05:00;;;;;;;4.47;4.03;;;21.10;63.10;;;;;;6228001;28;20632;-81
2023/08/04 10:08:06;;;;;;;4.63;4.20;;;21.40;61.40;;;;;;6225932;28;20854;-81
2023/08/04 10:11:09;;;;;;;3.53;3.33;;;21.30;60.90;;;;;;6223046;28;20322;-80
2023/08/04 10:14:13;;;;;;;4.77;3.40;;;21.20;61.20;;;;;;6226697;28;20234;-84
2023/08/04 10:17:19;;;;;;;3.70;3.40;;;21.00;60.30;;;;;;6220085;28;20747;-81
2023/08/04 10:20:27;;;;;;;4.20;3.83;;;20.90;60.60;;;;;;6231995;28;20606;-81
2023/08/04 10:23:31;;;;;;;7.00;4.03;;;20.60;60.90;;;;;;6225060;28;20241;-82
2023/08/04 10:26:35;;;;;;;6.70;3.60;;;20.40;62.20;;;;;;6220156;28;20234;-82
2023/08/04 10:29:40;;;;;;;3.73;3.60;;;20.00;63.30;;;;;;6221258;28;20239;-81
2023/08/04 10:32:44;;;;;;;6.67;3.90;;;19.80;65.00;;;;;;6218263;28;20258;-82
2023/08/04 10:36:08;;;;;;;5.77;4.17;;;19.60;66.90;;;;;;6221637;28;20238;-81
2023/08/04 10:39:27;;;;;;;4.00;3.70;;;19.70;67.90;;;;;;6219962;28;20243;-82
2023/08/04 10:43:00;;;;;;;4.57;4.23;;;19.80;68.00;;;;;;6231244;28;20234;-84
2023/08/04 10:46:10;;;;;;;4.60;4.30;;;20.00;68.20;;;;;;6229001;28;20247;-84
2023/08/04 10:49:13;;;;;;;4.00;3.80;;;19.90;67.70;;;;;;6237788;28;20771;-82
2023/08/04 10:52:19;;;;;;;4.10;3.87;;;20.10;67.60;;;;;;6233323;28;20847;-83
2023/08/04 10:55:22;;;;;;;4.17;3.97;;;20.50;66.40;;;;;;6217917;28;20242;-83
2023/08/04 10:58:27;;;;;;;4.33;3.60;;;20.70;66.10;;;;;;6236908;28;20239;-81
2023/08/04 11:01:30;;;;;;;4.30;3.73;;;20.60;65.60;;;;;;6231023;28;20238;-83
2023/08/04 11:04:38;;;;;;;10.53;8.33;;;21.00;63.30;;;;;;6227005;28;20408;-81
2023/08/04 11:07:55;;;;;;;4.67;4.30;;;21.20;64.50;;;;;;6221465;28;20309;-82
2023/08/04 11:10:59;;;;;;;4.00;3.77;;;21.70;64.20;;;;;;6225488;28;20711;-82
2023/08/04 11:14:06;;;;;;;3.83;3.53;;;22.00;62.10;;;;;;6227897;28;20859;-82
2023/08/04 11:17:15;;;;;;;3.93;3.73;;;22.20;61.30;;;;;;6220496;28;20236;-82
2023/08/04 11:20:18;;;;;;;4.40;4.00;;;22.30;61.10;;;;;;6225089;28;20266;-83
2023/08/04 11:23:35;;;;;;;3.87;3.57;;;22.30;61.30;;;;;;6259878;28;20487;-79
2023/08/04 11:26:39;;;;;;;4.03;3.73;;;22.50;61.00;;;;;;6256625;28;20243;-77
2023/08/04 11:29:42;;;;;;;2.70;2.60;;;22.60;61.80;;;;;;6260725;28;20238;-80
2023/08/04 11:32:50;;;;;;;4.33;2.80;;;22.80;58.40;;;;;;6244831;28;20247;-78
2023/08/04 11:35:54;;;;;;;2.90;2.67;;;22.70;56.20;;;;;;6256287;28;20215;-81
2023/08/04 11:38:58;;;;;;;3.20;3.20;;;22.60;55.80;;;;;;6254509;28;20235;-80
2023/08/04 11:42:02;;;;;;;3.60;3.40;;;22.60;56.50;;;;;;6260768;28;20225;-81
2023/08/04 11:45:10;;;;;;;4.43;4.03;;;22.20;56.50;;;;;;6254710;28;20220;-81
2023/08/04 11:48:18;;;;;;;3.27;3.10;;;22.00;57.20;;;;;;6263244;28;20239;-81
2023/08/04 11:51:22;;;;;;;3.80;3.70;;;22.10;58.00;;;;;;6244099;28;20214;-82
2023/08/04 11:54:26;;;;;;;3.10;2.90;;;22.40;58.10;;;;;;6256526;28;20210;-81
2023/08/04 11:57:29;;;;;;;3.53;3.23;;;22.20;58.00;;;;;;6259509;28;20231;-81
2023/08/04 12:00:34;;;;;;;5.40;3.60;;;22.50;58.70;;;;;;6269879;28;20225;-79
2023/08/04 12:03:47;;;;;;;3.47;3.37;;;22.70;57.20;;;;;;6245505;28;20234;-82
2023/08/04 12:06:59;;;;;;;3.40;3.20;;;22.80;58.30;;;;;;6230102;28;20301;-82
2023/08/04 12:10:05;;;;;;;4.20;3.90;;;22.40;58.20;;;;;;6236164;28;20246;-81
2023/08/04 12:13:09;;;;;;;2.73;2.53;;;22.10;58.80;;;;;;6231806;28;20633;-82
2023/08/04 12:16:12;;;;;;;3.90;3.50;;;22.00;59.60;;;;;;6228880;28;20263;-82
2023/08/04 12:19:16;;;;;;;3.40;3.10;;;22.30;58.90;;;;;;6220547;28;20282;-84
2023/08/04 12:22:19;;;;;;;5.33;3.47;;;21.90;60.10;;;;;;6221274;28;20235;-83
2023/08/04 12:25:25;;;;;;;4.03;3.83;;;21.90;60.20;;;;;;6219350;28;20243;-83
2023/08/04 12:28:29;;;;;;;4.20;3.63;;;22.00;61.00;;;;;;6215305;28;20246;-83
2023/08/04 12:31:32;;;;;;;4.10;3.60;;;22.30;60.20;;;;;;6225289;28;20231;-82
2023/08/04 12:34:36;;;;;;;5.10;4.30;;;22.30;59.20;;;;;;6227567;28;20231;-81
2023/08/04 12:37:40;;;;;;;4.27;3.87;;;22.40;59.80;;;;;;6242710;28;20239;-82
2023/08/04 12:40:44;;;;;;;4.27;3.77;;;22.60;59.20;;;;;;6231073;28;20235;-85
2023/08/04 12:43:48;;;;;;;4.53;4.10;;;23.10;59.30;;;;;;6226081;28;20232;-84
2023/08/04 12:46:51;;;;;;;3.73;3.53;;;23.60;58.60;;;;;;6235212;28;20747;-83
2023/08/04 12:49:54;;;;;;;4.50;4.20;;;24.20;57.50;;;;;;6229390;28;20240;-83
2023/08/04 12:52:58;;;;;;;3.87;3.57;;;24.40;56.20;;;;;;6219524;28;20313;-82
2023/08/04 12:56:02;;;;;;;3.80;3.50;;;24.50;56.10;;;;;;6229474;28;20728;-82
2023/08/04 12:59:07;;;;;;;3.67;3.37;;;24.10;56.30;;;;;;6227099;28;20246;-80
2023/08/04 13:02:10;;;;;;;3.60;3.40;;;24.00;56.10;;;;;;6225687;28;20254;-81
2023/08/04 13:05:13;;;;;;;3.63;3.53;;;23.90;55.90;;;;;;6233814;28;20250;-83
2023/08/04 13:08:16;;;;;;;3.90;3.63;;;23.80;56.10;;;;;;6221525;28;20859;-81
2023/08/04 13:11:21;;;;;;;3.73;3.47;;;23.60;56.90;;;;;;6217400;28;20235;-82
2023/08/04 13:14:24;;;;;;;3.77;3.47;;;23.10;56.70;;;;;;6219166;28;20241;-79
2023/08/04 13:17:28;;;;;;;3.73;3.40;;;22.60;57.60;;;;;;6216946;28;20250;-82
2023/08/04 13:20:31;;;;;;;3.63;3.40;;;22.60;58.40;;;;;;6219103;28;20485;-83
2023/08/04 13:23:34;;;;;;;3.97;3.50;;;22.90;58.40;;;;;;6227080;28;20241;-83
2023/08/04 13:26:39;;;;;;;7.27;3.70;;;22.70;57.80;;;;;;6224522;28;20761;-85
2023/08/04 13:29:42;;;;;;;6.07;3.67;;;22.50;58.20;;;;;;6221906;28;20239;-85
2023/08/04 13:32:47;;;;;;;4.23;3.47;;;22.30;58.20;;;;;;6215381;28;20262;-82
2023/08/04 13:35:50;;;;;;;3.80;3.60;;;22.10;59.20;;;;;;6222578;28;20239;-83
2023/08/04 13:38:53;;;;;;;3.77;3.47;;;22.00;59.40;;;;;;6225784;28;20239;-83
2023/08/04 13:41:58;;;;;;;3.97;3.70;;;22.00;60.20;;;;;;6223741;28;20239;-82
2023/08/04 13:45:01;;;;;;;2.90;2.80;;;21.90;60.50;;;;;;6220214;28;20883;-82
2023/08/04 13:48:04;;;;;;;3.83;3.20;;;21.80;59.40;;;;;;6230388;28;20247;-83
2023/08/04 13:51:07;;;;;;;3.57;3.43;;;21.90;58.40;;;;;;6230893;28;20264;-82
2023/08/04 13:54:27;;;;;;;3.70;3.50;;;22.00;59.30;;;;;;6226384;28;20241;-81
2023/08/04 13:57:32;;;;;;;3.47;3.17;;;22.30;58.60;;;;;;6224321;28;20231;-82
2023/08/04 14:00:56;;;;;;;4.07;3.67;;;22.70;58.20;;;;;;6225348;28;20250;-83
2023/08/04 14:03:59;;;;;;;3.67;3.40;;;23.00;56.80;;;;;;6228346;28;20246;-81
2023/08/04 14:07:03;;;;;;;3.43;3.13;;;23.00;56.20;;;;;;6227225;28;20237;-84
2023/08/04 14:10:09;;;;;;;3.70;3.60;;;22.70;56.80;;;;;;6225893;28;20612;-84
2023/08/04 14:13:14;;;;;;;3.80;3.70;;;22.60;57.50;;;;;;6208446;28;20247;-83
2023/08/04 14:16:17;;;;;;;3.90;3.57;;;22.80;57.70;;;;;;6226126;28;20238;-83
2023/08/04 14:19:20;;;;;;;4.57;4.27;;;23.00;56.40;;;;;;6236700;28;20274;-81
2023/08/04 14:22:23;;;;;;;3.70;3.40;;;23.40;56.80;;;;;;6229104;28;20238;-83
2023/08/04 14:25:28;;;;;;;4.03;3.70;;;23.60;55.80;;;;;;6228878;28;20236;-84
2023/08/04 14:28:32;;;;;;;4.30;3.30;;;23.30;55.50;;;;;;6227414;28;20250;-84
2023/08/04 14:31:36;;;;;;;3.87;3.57;;;22.80;56.60;;;;;;6228818;28;20234;-80
2023/08/04 14:34:39;;;;;;;4.60;3.60;;;22.90;56.80;;;;;;6235692;28;20227;-82
2023/08/04 14:37:42;;;;;;;4.43;3.07;;;22.90;57.40;;;;;;6235693;28;20283;-82
2023/08/04 14:40:45;;;;;;;3.10;3.00;;;22.80;56.50;;;;;;6238920;28;20239;-81
2023/08/04 14:43:51;;;;;;;3.27;3.07;;;22.40;55.60;;;;;;6239987;28;20369;-83
2023/08/04 14:46:54;;;;;;;3.07;2.93;;;22.30;56.90;;;;;;6221301;28;20289;-82
2023/08/04 14:49:58;;;;;;;3.07;2.87;;;22.50;56.90;;;;;;6239096;28;20254;-85
2023/08/04 14:53:01;;;;;;;2.93;2.73;;;22.70;56.90;;;;;;6224075;28;20268;-83
2023/08/04 14:56:05;;;;;;;2.63;2.53;;;23.00;54.30;;;;;;6227324;28;20242;-82
2023/08/04 14:59:09;;;;;;;3.00;2.73;;;23.00;53.20;;;;;;6228990;28;20250;-84
2023/08/04 15:02:13;;;;;;;2.60;2.50;;;23.00;53.50;;;;;;6228164;28;20253;-82
2023/08/04 15:05:16;;;;;;;2.60;2.50;;;22.90;53.20;;;;;;6230964;28;20230;-83
2023/08/04 15:08:20;;;;;;;3.50;3.20;;;23.00;53.30;;;;;;6234065;28;20239;-83
2023/08/04 15:11:23;;;;;;;2.50;2.40;;;23.00;53.70;;;;;;6240469;28;20421;-83
2023/08/04 15:14:28;;;;;;;2.77;2.70;;;22.90;53.00;;;;;;6226441;28;20641;-80
2023/08/04 15:17:32;;;;;;;4.10;2.80;;;23.00;53.50;;;;;;6223992;28;20237;-82
2023/08/04 15:20:36;;;;;;;2.83;2.83;;;23.00;54.00;;;;;;6230480;28;20278;-83
2023/08/04 15:23:39;;;;;;;2.80;2.70;;;23.30;54.00;;;;;;6226569;28;20322;-84
2023/08/04 15:26:42;;;;;;;2.80;2.53;;;23.60;53.20;;;;;;6222787;28;20318;-83
2023/08/04 15:29:47;;;;;;;2.50;2.40;;;23.90;51.50;;;;;;6224966;28;20654;-81
2023/08/04 15:32:53;;;;;;;2.70;2.60;;;23.70;52.00;;;;;;6229061;28;20319;-81
2023/08/04 15:35:56;;;;;;;2.70;2.60;;;23.60;51.20;;;;;;6229365;28;20246;-83
2023/08/04 15:39:00;;;;;;;2.73;2.63;;;23.90;51.70;;;;;;6223922;28;20243;-83
2023/08/04 15:42:03;;;;;;;3.33;2.60;;;24.00;51.40;;;;;;6217181;28;20239;-84
2023/08/04 15:45:10;;;;;;;2.83;2.73;;;24.20;51.60;;;;;;6223814;28;20243;-82
2023/08/04 15:48:14;;;;;;;3.00;2.80;;;23.90;51.90;;;;;;6225902;28;20231;-84
2023/08/04 15:51:17;;;;;;;2.63;2.57;;;23.70;51.50;;;;;;6218865;28;20235;-82
2023/08/04 15:54:20;;;;;;;2.77;2.67;;;23.50;52.00;;;;;;6221264;28;20239;-83
2023/08/04 15:57:24;;;;;;;4.17;3.00;;;23.40;51.50;;;;;;6225426;28;20230;-81
2023/08/04 16:00:28;;;;;;;2.97;2.97;;;23.40;51.80;;;;;;6222646;28;20845;-82